Time;durP1;ratioP1;P1;durP2;ratioP2;P2;SDS_P1;SDS_P2;PMS_P1;PMS_P2;Temp;Humidity;BMP_temperature;BMP_pressure;BME280_temperature;BME280_humidity;BME280_pressure;Samples;Min_cycle;Max_cycle;Signal;HPM_P1;HPM_P2
2021/09/08 00:00:49;;;;;;;0.40;0.20;;;16.70;99.90;;;;;;5053600;28;20236;-68
2021/09/08 00:03:14;;;;;;;0.40;0.10;;;16.70;99.90;;;;;;5054666;28;20246;-68
2021/09/08 00:05:40;;;;;;;0.40;0.20;;;16.60;99.90;;;;;;5054736;28;20208;-68
2021/09/08 00:08:06;;;;;;;0.40;0.20;;;16.60;99.90;;;;;;5054321;28;20188;-68
2021/09/08 00:10:31;;;;;;;0.40;0.20;;;16.50;99.90;;;;;;5054546;28;20181;-68
2021/09/08 00:12:57;;;;;;;0.40;0.20;;;16.50;99.90;;;;;;5054701;28;20250;-71
2021/09/08 00:15:23;;;;;;;0.40;0.20;;;16.50;99.90;;;;;;5054548;28;20180;-71
2021/09/08 00:17:48;;;;;;;0.40;0.20;;;16.50;99.90;;;;;;5054237;28;20177;-71
2021/09/08 00:20:15;;;;;;;0.40;0.20;;;16.40;99.90;;;;;;5054196;28;20458;-71
2021/09/08 00:22:42;;;;;;;0.40;0.20;;;16.40;99.90;;;;;;5054411;28;20648;-72
2021/09/08 00:25:08;;;;;;;0.40;0.20;;;16.50;99.90;;;;;;5054249;28;20877;-68
2021/09/08 00:27:33;;;;;;;0.40;0.20;;;16.40;99.90;;;;;;5054056;28;20905;-68
2021/09/08 00:29:59;;;;;;;0.40;0.20;;;16.30;99.90;;;;;;5054146;28;20516;-68
2021/09/08 00:32:25;;;;;;;0.40;0.20;;;16.40;99.90;;;;;;5054130;28;20181;-68
2021/09/08 00:34:50;;;;;;;0.40;0.20;;;16.50;99.90;;;;;;5054154;28;20193;-68
2021/09/08 00:37:16;;;;;;;0.40;0.20;;;16.40;99.90;;;;;;5053979;28;20576;-68
2021/09/08 00:39:41;;;;;;;0.40;0.20;;;16.40;99.90;;;;;;5053685;28;20222;-68
2021/09/08 00:42:14;;;;;;;0.40;0.20;;;16.30;99.90;;;;;;5052993;28;20181;-68
2021/09/08 00:44:41;;;;;;;0.40;0.20;;;16.30;99.90;;;;;;5054152;28;20231;-68
2021/09/08 00:47:06;;;;;;;0.40;0.20;;;16.40;99.90;;;;;;5053929;28;20435;-68
2021/09/08 00:49:32;;;;;;;0.40;0.20;;;16.50;99.90;;;;;;5053162;28;20921;-69
2021/09/08 00:52:03;;;;;;;0.40;0.20;;;16.50;99.90;;;;;;5053895;28;20247;-68
2021/09/08 00:54:29;;;;;;;0.40;0.20;;;16.50;99.90;;;;;;5054172;28;20450;-68
2021/09/08 00:56:57;;;;;;;0.40;0.20;;;16.40;99.90;;;;;;5053693;28;20892;-68
2021/09/08 00:59:23;;;;;;;0.40;0.20;;;16.50;99.90;;;;;;5053409;28;20552;-68
2021/09/08 01:01:49;;;;;;;0.40;0.20;;;16.30;99.90;;;;;;5053649;28;20423;-68
2021/09/08 01:04:15;;;;;;;0.40;0.20;;;16.30;99.90;;;;;;5053486;28;20278;-68
2021/09/08 01:06:41;;;;;;;0.40;0.10;;;16.30;99.90;;;;;;5053550;28;20181;-68
2021/09/08 01:09:08;;;;;;;0.40;0.10;;;16.40;99.90;;;;;;5053370;28;20926;-68
2021/09/08 01:11:34;;;;;;;0.40;0.20;;;16.20;99.90;;;;;;5053681;28;20502;-68
2021/09/08 01:13:59;;;;;;;0.40;0.20;;;16.20;99.90;;;;;;5053565;28;20430;-68
2021/09/08 01:16:25;;;;;;;0.40;0.20;;;16.20;99.90;;;;;;5053433;28;20172;-68
2021/09/08 01:18:51;;;;;;;0.40;0.10;;;16.30;99.90;;;;;;5053324;28;20177;-68
2021/09/08 01:21:16;;;;;;;0.40;0.20;;;16.30;99.90;;;;;;5053434;28;20232;-68
2021/09/08 01:23:42;;;;;;;0.40;0.20;;;16.20;99.90;;;;;;5053611;28;20184;-68
2021/09/08 01:26:09;;;;;;;0.40;0.20;;;16.20;99.90;;;;;;5053726;28;20184;-68
2021/09/08 01:28:35;;;;;;;0.40;0.20;;;16.10;99.90;;;;;;5052423;28;20173;-68
2021/09/08 01:31:01;;;;;;;0.40;0.20;;;16.00;99.90;;;;;;5053465;28;20272;-68
2021/09/08 01:33:27;;;;;;;0.40;0.20;;;16.00;99.90;;;;;;5052391;28;20534;-68
2021/09/08 01:35:53;;;;;;;0.40;0.20;;;15.90;99.90;;;;;;5053362;28;20522;-68
2021/09/08 01:38:19;;;;;;;0.40;0.17;;;15.80;99.90;;;;;;5052141;28;20248;-68
2021/09/08 01:40:47;;;;;;;0.40;0.20;;;15.90;99.90;;;;;;5053349;28;20281;-68
2021/09/08 01:43:13;;;;;;;0.40;0.20;;;15.90;99.90;;;;;;5053288;28;20892;-68
2021/09/08 01:45:41;;;;;;;0.40;0.20;;;15.90;99.90;;;;;;5053347;28;20256;-68
2021/09/08 01:48:10;;;;;;;0.40;0.20;;;15.90;99.90;;;;;;5052934;28;20434;-68
2021/09/08 01:50:37;;;;;;;0.60;0.57;;;15.80;99.90;;;;;;5053258;28;20450;-68
2021/09/08 01:53:03;;;;;;;0.40;0.15;;;15.80;99.90;;;;;;5053176;28;20188;-68
2021/09/08 01:55:29;;;;;;;0.40;0.20;;;15.60;99.90;;;;;;5053172;28;20611;-68
2021/09/08 01:57:54;;;;;;;0.40;0.20;;;15.50;99.90;;;;;;5052948;28;20189;-68
2021/09/08 02:00:20;;;;;;;0.40;0.20;;;15.50;99.90;;;;;;5053205;28;20196;-68
2021/09/08 02:02:45;;;;;;;0.40;0.20;;;15.50;99.90;;;;;;5057167;28;20284;-68
2021/09/08 02:05:14;;;;;;;0.40;0.20;;;15.50;99.90;;;;;;5057336;28;20203;-68
2021/09/08 02:07:40;;;;;;;0.40;0.20;;;15.50;99.90;;;;;;5057089;28;20181;-68
2021/09/08 02:10:06;;;;;;;0.40;0.20;;;15.60;99.90;;;;;;5056692;28;20187;-68
2021/09/08 02:12:32;;;;;;;0.40;0.17;;;15.60;99.90;;;;;;5056684;28;20181;-68
2021/09/08 02:14:57;;;;;;;0.40;0.17;;;15.50;99.90;;;;;;5056671;28;20268;-68
2021/09/08 02:17:23;;;;;;;0.40;0.20;;;15.50;99.90;;;;;;5056369;28;20173;-68
2021/09/08 02:19:48;;;;;;;0.40;0.40;;;15.40;99.90;;;;;;5056597;28;20205;-68
2021/09/08 02:22:14;;;;;;;0.40;0.20;;;15.30;99.90;;;;;;5056536;28;20188;-68
2021/09/08 02:24:39;;;;;;;0.40;0.20;;;15.30;99.90;;;;;;5056489;28;20169;-69
2021/09/08 02:27:05;;;;;;;0.40;0.20;;;15.20;99.90;;;;;;5056397;28;20203;-69
2021/09/08 02:29:30;;;;;;;0.40;0.20;;;15.20;99.90;;;;;;5056386;28;20177;-69
2021/09/08 02:31:56;;;;;;;3.13;2.10;;;15.30;99.90;;;;;;5056459;28;20184;-69
2021/09/08 02:34:21;;;;;;;3.60;0.67;;;15.30;99.90;;;;;;5056358;28;20181;-69
2021/09/08 02:36:47;;;;;;;0.40;0.20;;;15.30;99.90;;;;;;5056241;28;20187;-70
2021/09/08 02:39:12;;;;;;;0.40;0.20;;;15.20;99.90;;;;;;5055905;28;20185;-70
2021/09/08 02:41:38;;;;;;;0.40;0.20;;;15.20;99.90;;;;;;5056211;28;20173;-71
2021/09/08 02:44:04;;;;;;;0.40;0.20;;;15.20;99.90;;;;;;5056250;28;20181;-71
2021/09/08 02:46:29;;;;;;;0.40;0.20;;;15.10;99.90;;;;;;5056025;28;20508;-71
2021/09/08 02:48:55;;;;;;;0.40;0.10;;;15.00;99.90;;;;;;5055830;28;20176;-71
2021/09/08 02:51:24;;;;;;;0.40;0.30;;;15.20;99.90;;;;;;5056015;28;20230;-71
2021/09/08 02:53:49;;;;;;;0.40;0.20;;;15.20;99.90;;;;;;5055947;28;20851;-70
2021/09/08 02:56:15;;;;;;;0.40;0.20;;;15.20;99.90;;;;;;5055944;28;20324;-70
2021/09/08 02:58:40;;;;;;;0.40;0.10;;;15.20;99.90;;;;;;5055594;28;20196;-71
2021/09/08 03:01:08;;;;;;;0.40;0.20;;;15.20;99.90;;;;;;5055660;28;20657;-71
2021/09/08 03:03:35;;;;;;;0.40;0.10;;;15.30;99.90;;;;;;5056002;28;20291;-71
2021/09/08 03:06:00;;;;;;;0.40;0.20;;;15.20;99.90;;;;;;5055680;28;20263;-70
2021/09/08 03:08:26;;;;;;;0.40;0.20;;;15.20;99.90;;;;;;5055556;28;20177;-71
2021/09/08 03:10:51;;;;;;;0.40;0.20;;;15.20;99.90;;;;;;5055638;28;20645;-68
2021/09/08 03:13:18;;;;;;;0.40;0.20;;;15.20;99.90;;;;;;5055208;28;20610;-69
2021/09/08 03:15:44;;;;;;;0.40;0.20;;;15.20;99.90;;;;;;5055414;28;20610;-68
2021/09/08 03:18:10;;;;;;;0.40;0.30;;;15.10;99.90;;;;;;5055307;28;20212;-69
2021/09/08 03:20:35;;;;;;;0.40;0.20;;;15.10;99.90;;;;;;5055404;28;20278;-69
2021/09/08 03:23:02;;;;;;;0.40;0.20;;;15.20;99.90;;;;;;5055539;28;20180;-68
2021/09/08 03:25:28;;;;;;;0.40;0.20;;;15.10;99.90;;;;;;5055278;28;20168;-71
2021/09/08 03:27:54;;;;;;;0.40;0.10;;;15.20;99.90;;;;;;5055174;28;20188;-71
2021/09/08 03:30:23;;;;;;;0.40;0.20;;;15.10;99.90;;;;;;5055084;28;20271;-71
2021/09/08 03:32:49;;;;;;;0.40;0.20;;;15.10;99.90;;;;;;5055310;28;20617;-72
2021/09/08 03:35:14;;;;;;;0.40;0.10;;;15.10;99.90;;;;;;5055169;28;20238;-71
2021/09/08 03:37:40;;;;;;;0.60;0.53;;;15.10;99.90;;;;;;5054971;28;20188;-72
2021/09/08 03:40:06;;;;;;;0.40;0.20;;;15.10;99.90;;;;;;5054890;28;20249;-72
2021/09/08 03:42:32;;;;;;;1.90;1.15;;;15.10;99.90;;;;;;5054881;28;20287;-72
2021/09/08 03:44:58;;;;;;;1.45;1.40;;;15.00;99.90;;;;;;5054922;28;20602;-72
2021/09/08 03:47:24;;;;;;;0.40;0.20;;;15.00;99.90;;;;;;5054875;28;20187;-71
2021/09/08 03:49:49;;;;;;;0.40;0.20;;;15.00;99.90;;;;;;5054706;28;20188;-71
2021/09/08 03:52:16;;;;;;;0.53;0.53;;;15.00;99.90;;;;;;5054750;28;20258;-71
2021/09/08 03:54:42;;;;;;;0.30;0.20;;;15.10;99.90;;;;;;5054732;28;20617;-71
2021/09/08 03:57:08;;;;;;;0.40;0.10;;;15.10;99.90;;;;;;5054649;28;20263;-72
2021/09/08 03:59:34;;;;;;;0.40;0.20;;;15.00;99.90;;;;;;5054296;28;20857;-71
2021/09/08 04:02:00;;;;;;;0.82;0.35;;;14.90;99.90;;;;;;5053661;28;20441;-69
2021/09/08 04:04:26;;;;;;;0.43;0.37;;;15.00;99.90;;;;;;5053654;28;20685;-69
2021/09/08 04:06:51;;;;;;;3.50;0.77;;;14.90;99.90;;;;;;5054929;28;20185;-69
2021/09/08 04:09:17;;;;;;;0.40;0.20;;;14.80;99.90;;;;;;5054323;28;20169;-72
2021/09/08 04:11:43;;;;;;;0.40;0.20;;;14.70;99.90;;;;;;5054448;28;20507;-72
2021/09/08 04:14:09;;;;;;;1.13;1.13;;;14.70;99.90;;;;;;5054535;28;20594;-72
2021/09/08 04:16:35;;;;;;;0.65;0.65;;;14.60;99.90;;;;;;5054210;28;20426;-75
2021/09/08 04:19:01;;;;;;;0.50;0.37;;;14.50;99.90;;;;;;5053941;28;20173;-66
2021/09/08 04:21:26;;;;;;;3.60;0.93;;;14.50;99.90;;;;;;5054398;28;20204;-67
2021/09/08 04:23:52;;;;;;;0.30;0.20;;;14.50;99.90;;;;;;5052407;28;20423;-67
2021/09/08 04:26:18;;;;;;;0.30;0.20;;;14.50;99.90;;;;;;5054245;28;20192;-67
2021/09/08 04:28:45;;;;;;;0.30;0.20;;;14.40;99.90;;;;;;5054016;28;20169;-68
2021/09/08 04:31:10;;;;;;;0.30;0.20;;;14.40;99.90;;;;;;5055122;28;20210;-70
2021/09/08 04:33:36;;;;;;;0.30;0.20;;;14.40;99.90;;;;;;5055596;28;20180;-70
2021/09/08 04:36:02;;;;;;;0.40;0.20;;;14.40;99.90;;;;;;5053943;28;20190;-70
2021/09/08 04:38:28;;;;;;;0.30;0.20;;;14.30;99.90;;;;;;5052760;28;20187;-70
2021/09/08 04:40:54;;;;;;;1.88;1.77;;;14.30;99.90;;;;;;5053856;28;20205;-70
2021/09/08 04:43:19;;;;;;;0.37;0.20;;;14.30;99.90;;;;;;5053911;28;20275;-70
2021/09/08 04:45:45;;;;;;;0.40;0.30;;;14.40;99.90;;;;;;5053807;28;20188;-71
2021/09/08 04:48:11;;;;;;;0.30;0.20;;;14.40;99.90;;;;;;5054772;28;20671;-71
2021/09/08 04:50:36;;;;;;;0.30;0.20;;;14.40;99.90;;;;;;5054859;28;20602;-70
2021/09/08 04:53:02;;;;;;;0.30;0.20;;;14.30;99.90;;;;;;5054213;28;20553;-70
2021/09/08 04:55:27;;;;;;;0.30;0.20;;;14.50;99.90;;;;;;5053661;28;20196;-70
2021/09/08 04:57:53;;;;;;;0.33;0.23;;;14.40;99.90;;;;;;5053641;28;20188;-70
2021/09/08 05:00:21;;;;;;;0.30;0.10;;;14.50;99.90;;;;;;5053388;28;20204;-70
2021/09/08 05:02:46;;;;;;;0.77;0.40;;;14.50;99.90;;;;;;5053508;28;20188;-70
2021/09/08 05:05:12;;;;;;;0.30;0.20;;;14.50;99.90;;;;;;5053526;28;20181;-70
2021/09/08 05:07:38;;;;;;;0.40;0.20;;;14.50;99.90;;;;;;5053641;28;20180;-71
2021/09/08 05:10:04;;;;;;;0.30;0.20;;;14.60;99.90;;;;;;5053734;28;20269;-71
2021/09/08 05:12:30;;;;;;;0.30;0.20;;;14.90;99.90;;;;;;5053390;28;20188;-71
2021/09/08 05:14:55;;;;;;;0.30;0.20;;;15.00;99.90;;;;;;5053440;28;20181;-70
2021/09/08 05:17:21;;;;;;;0.40;0.20;;;15.00;99.90;;;;;;5053355;28;20231;-71
2021/09/08 05:19:46;;;;;;;1.70;1.60;;;15.20;99.90;;;;;;5053632;28;20273;-70
2021/09/08 05:22:12;;;;;;;0.40;0.20;;;15.30;99.90;;;;;;5053745;28;20181;-70
2021/09/08 05:24:38;;;;;;;0.40;0.20;;;15.30;99.90;;;;;;5053231;28;20562;-71
2021/09/08 05:27:03;;;;;;;0.37;0.20;;;15.60;99.90;;;;;;5053249;28;20671;-68
2021/09/08 05:29:29;;;;;;;0.40;0.20;;;16.20;99.90;;;;;;5053266;28;20188;-67
2021/09/08 05:31:54;;;;;;;0.40;0.20;;;17.00;99.90;;;;;;5053119;28;20187;-68
2021/09/08 05:34:20;;;;;;;0.40;0.20;;;18.00;1.00;;;;;;5053432;28;20186;-68
2021/09/08 05:36:47;;;;;;;0.50;0.30;;;18.60;99.90;;;;;;5056386;28;20173;-68
2021/09/08 05:39:13;;;;;;;0.50;0.50;;;19.20;99.90;;;;;;5057130;28;20644;-67
2021/09/08 05:41:38;;;;;;;0.57;0.37;;;19.50;1.00;;;;;;5056234;28;20462;-68
2021/09/08 05:44:04;;;;;;;1.03;1.03;;;20.10;99.90;;;;;;5057031;28;20733;-68
2021/09/08 05:46:30;;;;;;;1.10;0.73;;;20.30;34.40;;;;;;5057067;28;20195;-67
2021/09/08 05:48:55;;;;;;;1.03;1.03;;;20.40;1.00;;;;;;5056888;28;20418;-68
2021/09/08 05:51:21;;;;;;;0.40;0.20;;;21.00;1.00;;;;;;5057040;28;20257;-68
2021/09/08 05:53:46;;;;;;;0.40;0.20;;;21.20;1.00;;;;;;5056960;28;20185;-68
2021/09/08 05:56:12;;;;;;;0.60;0.60;;;21.60;1.00;;;;;;5057142;28;20177;-68
2021/09/08 05:58:37;;;;;;;0.50;0.30;;;22.70;1.00;;;;;;5056679;28;20208;-68
2021/09/08 06:01:03;;;;;;;0.60;0.60;;;22.90;99.90;;;;;;5057056;28;20200;-70
2021/09/08 06:03:28;;;;;;;1.13;1.03;;;23.10;99.90;;;;;;5056952;28;20213;-71
2021/09/08 06:05:54;;;;;;;0.80;0.77;;;23.30;99.90;;;;;;5056971;28;20184;-71
2021/09/08 06:08:19;;;;;;;0.60;0.40;;;22.50;99.90;;;;;;5056884;28;20192;-71
2021/09/08 06:10:45;;;;;;;0.40;0.20;;;22.20;1.00;;;;;;5056705;28;20180;-71
2021/09/08 06:13:10;;;;;;;0.40;0.20;;;22.30;1.00;;;;;;5056643;28;20192;-72
2021/09/08 06:15:36;;;;;;;0.40;0.20;;;22.90;99.90;;;;;;5056624;28;20193;-71
2021/09/08 06:18:04;;;;;;;0.40;0.20;;;23.30;99.90;;;;;;5056681;28;20181;-71
2021/09/08 06:20:29;;;;;;;0.40;0.20;;;23.80;99.90;;;;;;5056546;28;20212;-72
2021/09/08 06:22:56;;;;;;;12.83;1.17;;;24.10;99.90;;;;;;5056496;28;20427;-72
2021/09/08 06:25:22;;;;;;;0.40;0.13;;;24.20;1.00;;;;;;5056144;28;20230;-71
2021/09/08 06:27:48;;;;;;;0.40;0.20;;;24.00;99.90;;;;;;5055959;28;20423;-72
2021/09/08 06:30:14;;;;;;;0.70;0.57;;;24.20;99.90;;;;;;5056150;28;20523;-71
2021/09/08 06:32:39;;;;;;;0.50;0.30;;;24.00;56.80;;;;;;5056457;28;20211;-69
2021/09/08 06:35:06;;;;;;;1.33;1.33;;;23.40;99.90;;;;;;5056422;28;20635;-68
2021/09/08 06:37:31;;;;;;;0.40;0.20;;;23.30;99.90;;;;;;5056469;28;20645;-69
2021/09/08 06:39:57;;;;;;;0.40;0.20;;;22.80;99.90;;;;;;5055911;28;20493;-68
2021/09/08 06:42:22;;;;;;;0.70;0.40;;;23.20;99.90;;;;;;5056119;28;20230;-68
2021/09/08 06:44:52;;;;;;;1.43;1.33;;;23.00;99.90;;;;;;5055897;28;20191;-69
2021/09/08 06:47:21;;;;;;;1.70;1.60;;;22.90;99.90;;;;;;5054642;28;20173;-69
2021/09/08 06:49:48;;;;;;;0.50;0.40;;;22.70;99.90;;;;;;5056007;28;20942;-68
2021/09/08 06:52:14;;;;;;;0.40;0.20;;;22.10;1.00;;;;;;5055926;28;20506;-68
2021/09/08 06:54:40;;;;;;;0.40;0.10;;;21.10;99.90;;;;;;5055125;28;20565;-69
2021/09/08 06:57:06;;;;;;;0.87;0.47;;;20.30;14.40;;;;;;5055619;28;20486;-69
2021/09/08 06:59:32;;;;;;;0.47;0.33;;;19.40;99.90;;;;;;5055348;28;20454;-69
2021/09/08 07:01:58;;;;;;;6.93;1.80;;;18.90;99.90;;;;;;5056033;28;20431;-69
2021/09/08 07:04:24;;;;;;;0.60;0.50;;;18.60;1.00;;;;;;5055648;28;20193;-68
2021/09/08 07:06:50;;;;;;;0.80;0.63;;;18.90;99.90;;;;;;5055368;28;20520;-68
2021/09/08 07:09:16;;;;;;;0.50;0.27;;;19.40;1.00;;;;;;5055119;28;20888;-72
2021/09/08 07:11:41;;;;;;;2.50;1.73;;;19.40;99.90;;;;;;5055427;28;20199;-72
2021/09/08 07:14:07;;;;;;;1.07;0.97;;;19.30;99.90;;;;;;5055485;28;20204;-71
2021/09/08 07:16:32;;;;;;;0.97;0.87;;;18.80;1.00;;;;;;5055127;28;20271;-71
2021/09/08 07:18:58;;;;;;;0.40;0.20;;;18.50;99.90;;;;;;5054682;28;20189;-69
2021/09/08 07:21:24;;;;;;;0.60;0.30;;;18.40;99.90;;;;;;5055282;28;20204;-68
2021/09/08 07:23:49;;;;;;;0.67;0.40;;;18.50;99.90;;;;;;5055278;28;20204;-68
2021/09/08 07:26:15;;;;;;;0.50;0.30;;;18.50;99.90;;;;;;5055213;28;20788;-69
2021/09/08 07:28:41;;;;;;;0.40;0.10;;;18.80;99.90;;;;;;5055399;28;20245;-69
2021/09/08 07:31:09;;;;;;;3.97;3.13;;;18.80;99.90;;;;;;5055352;28;20181;-69
2021/09/08 07:33:35;;;;;;;0.40;0.20;;;18.80;99.90;;;;;;5055098;28;20195;-69
2021/09/08 07:36:00;;;;;;;0.63;0.53;;;18.90;99.90;;;;;;5055266;28;20755;-69
2021/09/08 07:38:26;;;;;;;1.27;1.17;;;19.00;99.90;;;;;;5055082;28;20181;-69
2021/09/08 07:40:55;;;;;;;0.40;0.20;;;18.90;99.90;;;;;;5056593;28;20196;-71
2021/09/08 07:43:22;;;;;;;0.40;0.20;;;19.10;99.90;;;;;;5055883;28;20428;-72
2021/09/08 07:45:48;;;;;;;0.60;0.50;;;19.50;99.90;;;;;;5055078;28;20419;-72
2021/09/08 07:48:14;;;;;;;0.50;0.30;;;19.60;84.10;;;;;;5053635;28;20930;-72
2021/09/08 07:50:40;;;;;;;0.40;0.20;;;19.60;1.00;;;;;;5054853;28;20415;-72
2021/09/08 07:53:08;;;;;;;0.47;0.27;;;19.70;1.00;;;;;;5053802;28;21014;-71
2021/09/08 07:55:35;;;;;;;0.63;0.30;;;20.00;1.00;;;;;;5053713;28;20274;-71
2021/09/08 07:58:01;;;;;;;0.40;0.20;;;19.90;1.00;;;;;;5054410;28;20432;-72
2021/09/08 08:00:26;;;;;;;0.63;0.23;;;20.00;1.00;;;;;;5054254;28;20489;-71
2021/09/08 08:02:52;;;;;;;0.43;0.17;;;20.20;99.90;;;;;;5053462;28;20173;-71
2021/09/08 08:05:19;;;;;;;0.50;0.23;;;20.10;1.00;;;;;;5054523;28;20184;-71
2021/09/08 08:07:46;;;;;;;0.50;0.30;;;20.00;1.00;;;;;;5054354;28;20169;-71
2021/09/08 08:10:13;;;;;;;0.47;0.27;;;20.20;4.10;;;;;;5054351;28;20461;-69
2021/09/08 08:12:39;;;;;;;0.40;0.20;;;20.20;1.00;;;;;;5054528;28;20437;-69
2021/09/08 08:15:06;;;;;;;0.40;0.30;;;20.20;1.00;;;;;;5054785;28;20518;-68
2021/09/08 08:17:31;;;;;;;0.70;0.70;;;20.50;1.00;;;;;;5054191;28;20181;-69
2021/09/08 08:19:58;;;;;;;2.10;1.30;;;20.70;99.90;;;;;;5054151;28;20831;-69
2021/09/08 08:22:24;;;;;;;0.40;0.20;;;20.80;99.90;;;;;;5054129;28;20610;-68
2021/09/08 08:24:49;;;;;;;0.50;0.27;;;20.70;1.00;;;;;;5054179;28;20420;-69
2021/09/08 08:27:15;;;;;;;0.40;0.20;;;20.80;1.00;;;;;;5054579;28;20192;-69
2021/09/08 08:29:41;;;;;;;0.50;0.40;;;20.90;1.00;;;;;;5054376;28;20211;-69
2021/09/08 08:32:07;;;;;;;1.07;1.03;;;21.10;99.90;;;;;;5054146;28;20177;-69
2021/09/08 08:34:32;;;;;;;1.00;0.77;;;21.00;99.90;;;;;;5053103;28;20461;-69
2021/09/08 08:36:58;;;;;;;2.43;1.80;;;21.10;99.90;;;;;;5053853;28;20439;-69
2021/09/08 08:39:24;;;;;;;1.00;0.70;;;21.20;1.00;;;;;;5053647;28;20181;-69
2021/09/08 08:41:50;;;;;;;0.40;0.10;;;21.30;1.00;;;;;;5053777;28;20173;-69
2021/09/08 08:44:22;;;;;;;0.50;0.30;;;21.40;29.00;;;;;;5053819;28;20429;-71
2021/09/08 08:46:48;;;;;;;0.40;0.20;;;21.50;99.90;;;;;;5054190;28;20185;-71
2021/09/08 08:49:13;;;;;;;0.40;0.20;;;21.50;7.10;;;;;;5053692;28;20426;-71
2021/09/08 08:51:39;;;;;;;1.27;0.70;;;21.60;51.80;;;;;;5053920;28;20930;-71
2021/09/08 08:54:05;;;;;;;0.40;0.20;;;21.70;1.00;;;;;;5053655;28;20220;-71
2021/09/08 08:56:30;;;;;;;2.03;1.93;;;21.80;99.90;;;;;;5053651;28;20610;-71
2021/09/08 08:58:56;;;;;;;0.50;0.30;;;21.90;99.90;;;;;;5053450;28;20401;-71
2021/09/08 09:01:24;;;;;;;2.03;1.37;;;21.90;1.00;;;;;;5053601;28;20216;-71
2021/09/08 09:04:06;;;;;;;1.07;1.00;;;22.10;99.90;;;;;;5053888;28;20176;-71
2021/09/08 09:06:33;;;;;;;1.57;1.47;;;22.10;1.00;;;;;;5053596;28;20806;-72
2021/09/08 09:09:13;;;;;;;2.20;2.00;;;22.30;99.90;;;;;;5052243;28;20927;-71
2021/09/08 09:11:40;;;;;;;1.40;1.33;;;22.30;1.00;;;;;;5053682;28;20431;-70
2021/09/08 09:14:07;;;;;;;5.00;3.27;;;22.40;1.00;;;;;;5053839;28;20747;-69
2021/09/08 09:16:39;;;;;;;0.40;0.10;;;22.50;99.90;;;;;;5053562;28;20430;-69
2021/09/08 09:19:05;;;;;;;0.40;0.20;;;22.60;1.00;;;;;;5053479;28;20423;-68
2021/09/08 09:21:31;;;;;;;3.70;2.23;;;22.70;1.00;;;;;;5053243;28;20486;-69
2021/09/08 09:24:02;;;;;;;2.00;1.90;;;22.90;99.90;;;;;;5053373;28;20888;-68
2021/09/08 09:26:30;;;;;;;3.80;1.60;;;22.70;1.00;;;;;;5053818;28;20185;-68
2021/09/08 09:29:09;;;;;;;2.10;1.57;;;22.70;99.90;;;;;;5053327;28;20908;-68
2021/09/08 09:31:50;;;;;;;1.07;0.93;;;22.70;1.00;;;;;;5053612;28;20513;-68
2021/09/08 09:34:16;;;;;;;0.50;0.20;;;22.80;1.00;;;;;;5053676;28;20427;-68
2021/09/08 09:36:41;;;;;;;0.40;0.20;;;23.10;99.90;;;;;;5053429;28;20470;-69
2021/09/08 09:39:07;;;;;;;3.70;1.87;;;23.70;92.10;;;;;;5053331;28;20188;-68
2021/09/08 09:41:35;;;;;;;0.60;0.40;;;23.70;1.00;;;;;;5053233;28;20684;-68
2021/09/08 09:44:14;;;;;;;0.40;0.20;;;23.80;1.00;;;;;;5053132;28;20191;-69
2021/09/08 09:46:42;;;;;;;0.70;0.50;;;24.00;99.90;;;;;;5052950;28;20434;-68
2021/09/08 09:49:08;;;;;;;2.60;0.77;;;24.20;99.90;;;;;;5052972;28;20424;-69
2021/09/08 09:51:33;;;;;;;2.40;2.20;;;24.10;99.90;;;;;;5053281;28;20757;-69
2021/09/08 09:54:00;;;;;;;0.50;0.20;;;24.10;99.90;;;;;;5052218;28;20196;-69
2021/09/08 09:56:25;;;;;;;1.27;0.60;;;24.40;99.90;;;;;;5052199;28;20180;-69
2021/09/08 09:58:52;;;;;;;0.50;0.40;;;24.30;1.00;;;;;;5052496;28;20542;-68
2021/09/08 10:01:18;;;;;;;0.50;0.20;;;24.40;1.00;;;;;;5052931;28;20201;-69
2021/09/08 10:03:44;;;;;;;1.93;1.87;;;24.70;1.00;;;;;;5052239;28;20456;-69
2021/09/08 10:06:10;;;;;;;0.40;0.20;;;24.80;1.00;;;;;;5052389;28;20427;-75
2021/09/08 10:08:43;;;;;;;0.60;0.53;;;25.00;1.00;;;;;;5052269;28;20636;-69
2021/09/08 10:11:12;;;;;;;2.20;2.00;;;25.40;99.90;;;;;;5053227;28;20427;-71
2021/09/08 10:13:45;;;;;;;0.50;0.20;;;25.50;99.90;;;;;;5051812;28;20431;-69
2021/09/08 10:16:11;;;;;;;0.60;0.40;;;26.00;99.90;;;;;;5053157;28;20911;-68
2021/09/08 10:18:40;;;;;;;0.57;0.40;;;26.20;99.90;;;;;;5052960;28;20423;-69
2021/09/08 10:21:08;;;;;;;1.10;1.00;;;26.50;10.60;;;;;;5051552;28;20948;-71
2021/09/08 10:23:39;;;;;;;0.50;0.10;;;26.00;12.50;;;;;;5056421;28;20457;-69
2021/09/08 10:26:15;;;;;;;2.53;2.33;;;25.90;68.40;;;;;;5055591;28;20439;-69
2021/09/08 10:28:43;;;;;;;2.13;2.00;;;25.50;99.90;;;;;;5056360;28;20812;-72
2021/09/08 10:31:10;;;;;;;0.63;0.33;;;25.30;93.80;;;;;;5056178;28;20899;-69
2021/09/08 10:33:38;;;;;;;1.10;0.97;;;25.10;99.90;;;;;;5056240;28;20691;-71
2021/09/08 10:36:04;;;;;;;4.70;4.30;;;25.10;99.90;;;;;;5056375;28;20751;-71
2021/09/08 10:38:31;;;;;;;2.30;0.73;;;25.20;86.50;;;;;;5056199;28;20427;-73
2021/09/08 10:40:58;;;;;;;2.10;2.00;;;25.20;99.90;;;;;;5056073;28;20493;-69
2021/09/08 10:43:40;;;;;;;0.50;0.17;;;25.50;27.20;;;;;;5056037;28;20419;-69
2021/09/08 10:46:08;;;;;;;0.50;0.20;;;25.70;93.80;;;;;;5056224;28;20462;-72
2021/09/08 10:48:39;;;;;;;0.40;0.13;;;25.90;33.70;;;;;;5055737;28;20427;-71
2021/09/08 10:51:08;;;;;;;0.50;0.33;;;25.90;8.60;;;;;;5056030;28;20427;-70
2021/09/08 10:53:35;;;;;;;0.60;0.60;;;26.00;1.00;;;;;;5056133;28;20442;-70
2021/09/08 10:56:02;;;;;;;1.37;1.17;;;25.80;1.00;;;;;;5056159;28;20971;-70
2021/09/08 10:58:53;;;;;;;1.90;1.13;;;25.90;1.00;;;;;;5054318;28;20825;-70
2021/09/08 11:01:19;;;;;;;0.50;0.20;;;26.10;1.00;;;;;;5055782;28;20502;-71
2021/09/08 11:03:45;;;;;;;0.70;0.70;;;26.10;1.00;;;;;;5055853;28;20438;-71
2021/09/08 11:06:10;;;;;;;0.80;0.80;;;26.00;1.00;;;;;;5055735;28;20177;-70
2021/09/08 11:08:36;;;;;;;0.50;0.20;;;26.00;1.00;;;;;;5055826;28;20420;-70
2021/09/08 11:11:09;;;;;;;0.60;0.20;;;26.20;1.00;;;;;;5054802;28;20284;-69
2021/09/08 11:13:36;;;;;;;0.80;0.67;;;26.30;1.00;;;;;;5055813;28;20196;-72
2021/09/08 11:16:13;;;;;;;0.50;0.37;;;26.10;1.00;;;;;;5055945;28;20435;-71
2021/09/08 11:18:38;;;;;;;1.23;0.93;;;26.10;1.00;;;;;;5054402;28;20484;-69
2021/09/08 11:21:05;;;;;;;1.13;1.13;;;26.40;1.00;;;;;;5055525;28;20470;-70
2021/09/08 11:23:32;;;;;;;0.80;0.63;;;26.30;1.00;;;;;;5055501;28;20256;-73
2021/09/08 11:26:06;;;;;;;0.40;0.20;;;26.20;1.00;;;;;;5055642;28;20426;-73
2021/09/08 11:28:32;;;;;;;0.40;0.20;;;26.40;1.00;;;;;;5054968;28;20428;-73
2021/09/08 11:30:58;;;;;;;2.00;0.97;;;26.60;1.00;;;;;;5055177;28;20795;-73
2021/09/08 11:33:33;;;;;;;0.47;0.20;;;26.20;1.00;;;;;;5054982;28;20454;-72
2021/09/08 11:35:59;;;;;;;0.77;0.50;;;26.60;1.00;;;;;;5054894;28;20512;-72
2021/09/08 11:38:29;;;;;;;1.23;1.13;;;26.60;1.00;;;;;;5055200;28;20435;-71
2021/09/08 11:40:58;;;;;;;0.77;0.53;;;26.60;1.00;;;;;;5055125;28;20283;-72
2021/09/08 11:43:49;;;;;;;0.60;0.50;;;26.50;1.00;;;;;;5055043;28;20431;-72
2021/09/08 11:46:26;;;;;;;0.50;0.20;;;26.70;1.00;;;;;;5055024;28;20443;-72
2021/09/08 11:49:02;;;;;;;0.40;0.10;;;26.50;1.00;;;;;;5054636;28;20455;-72
2021/09/08 11:51:27;;;;;;;9.30;1.90;;;26.50;1.00;;;;;;5055097;28;20427;-72
2021/09/08 11:53:55;;;;;;;0.50;0.20;;;26.40;1.00;;;;;;5054684;28;20820;-71
2021/09/08 11:56:23;;;;;;;0.60;0.50;;;25.90;1.00;;;;;;5054773;28;20188;-72
2021/09/08 11:58:57;;;;;;;0.50;0.30;;;25.30;1.00;;;;;;5054494;28;20482;-72
2021/09/08 12:01:23;;;;;;;3.03;2.77;;;25.70;1.00;;;;;;5054334;28;20471;-72
2021/09/08 12:04:00;;;;;;;0.50;0.30;;;25.90;1.00;;;;;;5054626;28;20423;-70
2021/09/08 12:06:31;;;;;;;0.50;0.20;;;26.10;1.00;;;;;;5055641;28;20957;-71
2021/09/08 12:08:58;;;;;;;1.17;0.80;;;25.70;1.00;;;;;;5054165;28;20807;-69
2021/09/08 12:11:53;;;;;;;0.70;0.53;;;25.70;1.00;;;;;;5054694;28;20458;-69
2021/09/08 12:14:24;;;;;;;0.50;0.23;;;25.50;1.00;;;;;;5053744;28;20435;-74
2021/09/08 12:16:58;;;;;;;0.40;0.20;;;25.50;1.00;;;;;;5054593;28;20423;-69
2021/09/08 12:19:32;;;;;;;0.97;0.87;;;25.50;1.00;;;;;;5054184;28;20435;-69
2021/09/08 12:22:14;;;;;;;1.43;0.87;;;25.40;1.00;;;;;;5054251;28;20464;-69
2021/09/08 12:24:55;;;;;;;0.63;0.30;;;25.30;1.00;;;;;;5054223;28;20803;-70
2021/09/08 12:27:43;;;;;;;0.70;0.67;;;25.40;1.00;;;;;;5054459;28;20954;-71
2021/09/08 12:30:10;;;;;;;2.47;2.37;;;25.50;1.00;;;;;;5054651;28;20616;-69
2021/09/08 12:33:04;;;;;;;0.50;0.30;;;25.40;1.00;;;;;;5054654;28;20435;-70
2021/09/08 12:35:40;;;;;;;0.50;0.20;;;25.30;1.00;;;;;;5054411;28;20419;-69
2021/09/08 12:38:19;;;;;;;0.60;0.43;;;25.30;1.00;;;;;;5053303;28;20514;-69
2021/09/08 12:41:06;;;;;;;1.90;1.03;;;25.10;1.00;;;;;;5053995;28;20470;-69
2021/09/08 12:43:32;;;;;;;0.60;0.37;;;25.00;1.00;;;;;;5054381;28;20423;-71
2021/09/08 12:45:58;;;;;;;0.50;0.10;;;24.80;1.00;;;;;;5053288;28;20910;-69
2021/09/08 12:48:24;;;;;;;2.50;2.23;;;25.00;1.00;;;;;;5052520;28;20427;-69
2021/09/08 12:50:50;;;;;;;1.23;1.13;;;25.20;1.00;;;;;;5053873;28;20207;-69